Glendale, Arizona
Current Conditions -  °F | °C
As of 7:47 PM on Wednesday 22 Oct 2014 (Local Time) from KGEU Reporting Station
Few Clouds Few Clouds  
Wind Chill: 79°   Ceiling: Unl
Heat Index: 79°   Visibility: 20mi
Dew Point: 55°   Wind: 0mph
Humidity: 44%   Direction: NA
Pressure: 29.94"   Gusts: NA
Location:  33.54°N, 112.18°W
Report Text: KGEU 230247Z 00000KT 20SM FEW250 26/13 A2994 RMK LAST
Loading
Personal Weather Stations






























Interactive Weather Map
Tropical Storm Tracking
New forecast layout! Learn more

10-Day Weather Forecast

Advertisements
Track Severe Weather on mobile